Time;durP1;ratioP1;P1;durP2;ratioP2;P2;SDS_P1;SDS_P2;PMS_P1;PMS_P2;Temp;Humidity;BMP_temperature;BMP_pressure;BME280_temperature;BME280_humidity;BME280_pressure;Samples;Min_cycle;Max_cycle;Signal;HPM_P1;HPM_P2
2021/12/12 00:01:38;;;;;;;12.30;5.93;;;4.60;99.90;;;;;;4164853;28;20102;-62
2021/12/12 00:03:47;;;;;;;12.15;4.80;;;4.70;99.90;;;;;;4162647;28;20056;-62
2021/12/12 00:05:52;;;;;;;10.93;5.22;;;4.70;99.90;;;;;;4164063;28;20574;-62
2021/12/12 00:07:52;;;;;;;8.80;5.03;;;4.70;99.90;;;;;;4149989;28;20037;-62
2021/12/12 00:09:57;;;;;;;12.98;6.07;;;4.70;99.90;;;;;;4163059;28;20041;-62
2021/12/12 00:12:00;;;;;;;14.30;5.78;;;4.70;99.90;;;;;;4168265;28;20069;-62
2021/12/12 00:14:06;;;;;;;12.20;5.45;;;4.70;99.90;;;;;;4161737;28;20032;-62
2021/12/12 00:16:07;;;;;;;17.63;6.28;;;4.70;99.90;;;;;;4163491;28;20026;-62
2021/12/12 00:18:08;;;;;;;18.77;6.50;;;4.70;99.90;;;;;;4162597;28;20040;-62
2021/12/12 00:20:12;;;;;;;12.80;5.60;;;4.70;99.90;;;;;;4163225;28;20029;-63
2021/12/12 00:22:17;;;;;;;18.08;6.00;;;4.70;99.90;;;;;;4161242;28;20049;-62
2021/12/12 00:24:18;;;;;;;11.70;5.07;;;4.60;99.90;;;;;;4170317;28;20382;-62
2021/12/12 00:26:19;;;;;;;13.48;6.30;;;4.60;99.90;;;;;;4158997;28;20021;-62
2021/12/12 00:28:21;;;;;;;9.73;4.72;;;4.60;99.90;;;;;;4163296;28;20033;-62
2021/12/12 00:30:21;;;;;;;19.55;5.13;;;4.60;99.90;;;;;;4164018;28;20041;-62
2021/12/12 00:32:25;;;;;;;12.40;5.47;;;4.60;99.90;;;;;;4166241;28;20048;-62
2021/12/12 00:34:30;;;;;;;14.40;5.63;;;4.60;99.90;;;;;;4159600;28;20039;-62
2021/12/12 00:36:33;;;;;;;12.93;5.93;;;4.60;99.90;;;;;;4166614;28;20091;-62
2021/12/12 00:38:35;;;;;;;13.52;5.40;;;4.60;99.90;;;;;;4161770;28;20474;-62
2021/12/12 00:40:39;;;;;;;13.20;5.78;;;4.60;99.90;;;;;;4164910;28;20026;-62
2021/12/12 00:42:40;;;;;;;16.58;5.30;;;4.60;99.90;;;;;;4163757;28;20022;-62
2021/12/12 00:44:45;;;;;;;10.27;5.25;;;4.60;99.90;;;;;;4163600;28;20036;-62
2021/12/12 00:46:46;;;;;;;10.30;4.30;;;4.60;99.90;;;;;;4167749;28;20381;-61
2021/12/12 00:48:49;;;;;;;12.80;4.90;;;4.60;99.90;;;;;;4157183;28;20072;-62
2021/12/12 00:50:51;;;;;;;12.10;5.22;;;4.60;99.90;;;;;;4162426;28;20041;-62
2021/12/12 00:52:52;;;;;;;14.88;5.13;;;4.50;99.90;;;;;;4164505;28;20032;-62
2021/12/12 00:54:53;;;;;;;10.73;5.15;;;4.50;99.90;;;;;;4164687;28;20030;-62
2021/12/12 00:56:54;;;;;;;13.77;5.22;;;4.50;99.90;;;;;;4162157;28;20022;-62
2021/12/12 00:58:55;;;;;;;15.95;5.55;;;4.50;99.90;;;;;;4163671;28;20108;-62
2021/12/12 01:01:21;;;;;;;9.63;4.57;;;4.50;99.90;;;;;;4162492;28;20082;-62
2021/12/12 01:03:27;;;;;;;14.85;5.57;;;4.50;99.90;;;;;;4142947;28;20498;-60
2021/12/12 01:05:28;;;;;;;12.15;4.97;;;4.60;99.90;;;;;;4162222;28;20160;-62
2021/12/12 01:07:33;;;;;;;12.30;5.15;;;4.60;99.90;;;;;;4165957;28;20448;-62
2021/12/12 01:09:40;;;;;;;11.52;4.65;;;4.60;99.90;;;;;;4162458;28;20044;-62
2021/12/12 01:11:46;;;;;;;10.68;5.07;;;4.60;99.90;;;;;;4161906;28;20030;-62
2021/12/12 01:13:47;;;;;;;14.60;5.32;;;4.50;99.90;;;;;;4165834;28;20040;-62
2021/12/12 01:15:57;;;;;;;13.52;5.05;;;4.60;99.90;;;;;;4159200;28;20400;-61
2021/12/12 01:18:02;;;;;;;12.93;4.72;;;4.60;99.90;;;;;;4163019;28;20029;-62
2021/12/12 01:20:37;;;;;;;16.58;5.60;;;4.60;99.90;;;;;;4162543;28;20123;-63
2021/12/12 01:22:39;;;;;;;16.52;5.03;;;4.60;99.90;;;;;;4103067;28;20199;-62
2021/12/12 01:24:44;;;;;;;7.90;4.03;;;4.60;99.90;;;;;;4163376;28;20033;-62
2021/12/12 01:26:47;;;;;;;12.45;4.65;;;4.60;99.90;;;;;;4169053;28;20043;-62
2021/12/12 01:28:54;;;;;;;11.43;4.13;;;4.60;99.90;;;;;;4177551;28;20109;-62
2021/12/12 01:30:58;;;;;;;16.58;4.50;;;4.60;99.90;;;;;;4176848;28;20041;-62
2021/12/12 01:32:58;;;;;;;11.55;4.65;;;4.60;99.90;;;;;;4177690;28;20078;-62
2021/12/12 01:35:01;;;;;;;11.43;4.43;;;4.60;99.90;;;;;;4177530;28;20033;-62
2021/12/12 01:37:22;;;;;;;13.65;4.55;;;4.60;99.90;;;;;;4176659;28;20028;-62
2021/12/12 01:39:25;;;;;;;8.70;4.10;;;4.70;99.90;;;;;;4177302;28;20029;-62
2021/12/12 01:41:34;;;;;;;8.25;3.80;;;4.70;99.90;;;;;;4176310;28;20103;-62
2021/12/12 01:43:42;;;;;;;8.32;4.03;;;4.70;99.90;;;;;;4177321;28;20032;-62
2021/12/12 01:45:48;;;;;;;15.45;4.32;;;4.70;99.90;;;;;;4176858;28;20040;-61
2021/12/12 01:48:00;;;;;;;11.55;4.38;;;4.60;99.90;;;;;;4177358;28;20025;-62
2021/12/12 01:50:13;;;;;;;9.90;4.22;;;4.60;99.90;;;;;;4177045;28;20128;-62
2021/12/12 01:52:15;;;;;;;;;;;4.70;99.90;;;;;;4177544;28;20491;-62
2021/12/12 01:54:25;;;;;;;11.60;4.10;;;4.60;99.90;;;;;;4177253;28;19920;-62
2021/12/12 01:56:30;;;;;;;11.73;3.63;;;4.60;99.90;;;;;;4176371;28;20558;-62
2021/12/12 01:58:33;;;;;;;11.68;3.60;;;4.70;99.90;;;;;;4176755;28;20045;-62
2021/12/12 02:00:48;;;;;;;13.82;4.40;;;4.70;99.90;;;;;;4176433;28;20100;-62
2021/12/12 02:02:49;;;;;;;8.80;4.13;;;4.70;99.90;;;;;;4176631;28;20053;-61
2021/12/12 02:04:56;;;;;;;12.52;3.78;;;4.70;99.90;;;;;;4176792;28;20029;-62
2021/12/12 02:06:58;;;;;;;12.32;4.40;;;4.70;99.90;;;;;;4176492;28;20035;-62
2021/12/12 02:09:00;;;;;;;13.88;4.15;;;4.70;99.90;;;;;;4177117;28;20044;-62
2021/12/12 02:11:07;;;;;;;11.60;4.30;;;4.70;99.90;;;;;;4176178;28;20467;-62
2021/12/12 02:13:10;;;;;;;12.50;4.13;;;4.80;99.90;;;;;;4176915;28;20116;-62
2021/12/12 02:15:13;;;;;;;12.75;4.95;;;4.80;99.90;;;;;;4176298;28;20510;-63
2021/12/12 02:17:33;;;;;;;6.78;3.55;;;4.80;99.90;;;;;;4170425;28;20040;-62
2021/12/12 02:19:49;;;;;;;10.57;4.03;;;4.80;99.90;;;;;;4160197;28;20314;-62
2021/12/12 02:21:57;;;;;;;9.27;3.90;;;4.80;99.90;;;;;;4159746;28;20025;-61
2021/12/12 02:37:39;;;;;;;11.00;3.83;;;4.90;99.90;;;;;;4159252;28;20091;-62
2021/12/12 02:39:40;;;;;;;10.80;3.20;;;4.80;99.90;;;;;;4160100;28;20458;-62
2021/12/12 02:41:44;;;;;;;8.68;3.65;;;4.90;99.90;;;;;;4159268;28;20087;-61
2021/12/12 02:43:49;;;;;;;8.38;4.05;;;4.90;99.90;;;;;;4159982;28;20464;-62
2021/12/12 02:45:54;;;;;;;12.05;4.20;;;5.00;99.90;;;;;;4159709;28;20479;-62
2021/12/12 02:48:04;;;;;;;10.70;3.88;;;5.00;99.90;;;;;;4159869;28;20091;-62
2021/12/12 02:50:15;;;;;;;14.88;4.10;;;4.90;99.90;;;;;;4159291;28;20041;-62
2021/12/12 02:52:22;;;;;;;10.38;4.10;;;5.00;99.90;;;;;;4159890;28;20030;-62
2021/12/12 02:54:22;;;;;;;11.63;3.85;;;4.90;99.90;;;;;;4159854;28;20030;-62
2021/12/12 02:56:34;;;;;;;6.30;3.30;;;4.90;99.90;;;;;;4159104;28;20040;-62
2021/12/12 02:58:35;;;;;;;12.90;3.85;;;5.00;99.90;;;;;;4160366;28;20392;-62
2021/12/12 03:00:52;;;;;;;9.00;3.90;;;5.00;99.90;;;;;;4158974;28;20037;-62
2021/12/12 03:02:57;;;;;;;11.45;4.43;;;5.00;99.90;;;;;;4159532;28;20064;-61
2021/12/12 03:05:00;;;;;;;9.63;4.13;;;5.00;99.90;;;;;;4159798;28;20053;-61
2021/12/12 03:07:01;;;;;;;;;;;5.00;99.90;;;;;;4159850;28;20079;-61
2021/12/12 03:09:09;;;;;;;11.20;3.63;;;5.00;99.90;;;;;;4159651;28;20233;-62
2021/12/12 03:11:11;;;;;;;11.80;3.63;;;5.00;99.90;;;;;;4158758;28;20492;-62
2021/12/12 03:13:12;;;;;;;8.52;3.42;;;5.00;99.90;;;;;;4159826;28;20083;-61
2021/12/12 03:15:23;;;;;;;11.07;3.88;;;5.10;99.90;;;;;;4158760;28;20033;-61
2021/12/12 03:17:23;;;;;;;12.55;3.80;;;5.10;99.90;;;;;;4159712;28;20082;-61
2021/12/12 03:19:24;;;;;;;10.02;3.15;;;5.10;99.90;;;;;;4159977;28;20112;-61
2021/12/12 03:21:31;;;;;;;6.47;2.80;;;5.10;99.90;;;;;;4158984;28;20045;-61
2021/12/12 03:23:34;;;;;;;10.50;3.78;;;5.10;99.90;;;;;;4159765;28;20041;-61
2021/12/12 03:25:39;;;;;;;11.18;3.97;;;5.10;99.90;;;;;;4159124;28;20030;-61
2021/12/12 03:27:39;;;;;;;7.50;3.50;;;5.10;99.90;;;;;;4159741;28;20029;-60
2021/12/12 03:29:41;;;;;;;13.57;3.60;;;5.10;99.90;;;;;;4159389;28;20098;-61
2021/12/12 03:31:47;;;;;;;8.07;3.22;;;5.00;99.90;;;;;;4159110;28;20026;-61
2021/12/12 03:33:48;;;;;;;8.18;3.45;;;5.10;99.90;;;;;;4159517;28;20251;-61
2021/12/12 03:35:52;;;;;;;9.88;3.42;;;5.00;99.90;;;;;;4158581;28;20587;-61
2021/12/12 03:37:52;;;;;;;10.30;4.15;;;5.10;99.90;;;;;;4159699;28;20038;-61
2021/12/12 03:39:56;;;;;;;9.25;4.05;;;5.10;99.90;;;;;;4159195;28;20041;-60
2021/12/12 03:42:00;;;;;;;6.15;2.90;;;5.10;99.90;;;;;;4158640;28;20460;-61
2021/12/12 03:44:06;;;;;;;7.57;3.70;;;5.10;99.90;;;;;;4159700;28;20524;-61
2021/12/12 03:46:10;;;;;;;11.73;3.67;;;5.10;99.90;;;;;;4158519;28;20526;-61
2021/12/12 03:48:19;;;;;;;6.43;3.05;;;5.10;99.90;;;;;;4160587;28;20040;-61
2021/12/12 03:50:26;;;;;;;7.35;3.42;;;5.10;99.90;;;;;;4161994;28;20297;-60
2021/12/12 03:52:28;;;;;;;11.00;3.45;;;5.10;99.90;;;;;;4162813;28;20034;-61
2021/12/12 03:54:28;;;;;;;11.95;3.40;;;5.00;99.90;;;;;;4162403;28;20044;-61
2021/12/12 03:56:30;;;;;;;5.78;3.15;;;5.10;99.90;;;;;;4162144;28;20053;-61
2021/12/12 03:58:31;;;;;;;11.35;3.65;;;5.10;99.90;;;;;;4162416;28;20036;-61
2021/12/12 04:00:41;;;;;;;9.13;3.70;;;5.10;99.90;;;;;;4161387;28;20053;-61
2021/12/12 04:02:42;;;;;;;6.57;3.25;;;5.10;99.90;;;;;;4162278;28;20350;-60
2021/12/12 04:04:45;;;;;;;12.27;3.60;;;5.10;99.90;;;;;;4162226;28;20034;-61
2021/12/12 04:06:48;;;;;;;13.50;4.28;;;5.10;99.90;;;;;;4161234;28;20037;-61
2021/12/12 04:08:50;;;;;;;8.77;4.10;;;5.10;99.90;;;;;;4162388;28;20034;-61
2021/12/12 04:10:51;;;;;;;13.30;4.07;;;5.10;99.90;;;;;;4161102;28;20404;-61
2021/12/12 04:12:54;;;;;;;10.88;3.83;;;5.10;99.90;;;;;;4162365;28;20083;-61
2021/12/12 04:14:56;;;;;;;;;;;5.10;99.90;;;;;;4162610;28;20026;-61
2021/12/12 04:16:59;;;;;;;10.30;4.05;;;5.10;99.90;;;;;;4161244;28;19916;-61
2021/12/12 04:19:00;;;;;;;8.27;3.13;;;5.10;99.90;;;;;;4162279;28;20040;-61
2021/12/12 04:21:01;;;;;;;10.30;4.07;;;5.10;99.90;;;;;;4161182;28;20035;-61
2021/12/12 04:23:02;;;;;;;10.02;3.95;;;5.10;99.90;;;;;;4161890;28;20029;-61
2021/12/12 04:25:04;;;;;;;6.68;3.35;;;5.10;99.90;;;;;;4162039;28;20034;-62
2021/12/12 04:27:07;;;;;;;11.80;3.60;;;5.10;99.90;;;;;;4161862;28;20065;-61
2021/12/12 04:29:07;;;;;;;9.30;3.45;;;5.00;99.90;;;;;;4161712;28;20021;-61
2021/12/12 04:31:08;;;;;;;6.35;3.25;;;5.10;99.90;;;;;;4160857;28;20045;-61
2021/12/12 04:33:09;;;;;;;8.85;3.50;;;5.10;99.90;;;;;;4162114;28;20026;-61
2021/12/12 04:35:17;;;;;;;8.57;3.38;;;5.10;99.90;;;;;;4160722;28;20085;-62
2021/12/12 04:37:19;;;;;;;10.57;3.38;;;5.20;99.90;;;;;;4162211;28;20533;-61
2021/12/12 04:39:26;;;;;;;17.23;3.85;;;5.10;99.90;;;;;;4161970;28;20109;-60
2021/12/12 04:41:27;;;;;;;9.60;4.05;;;5.20;99.90;;;;;;4160625;28;20033;-61
2021/12/12 04:43:27;;;;;;;9.65;3.42;;;5.20;99.90;;;;;;4161625;28;20091;-61
2021/12/12 04:45:36;;;;;;;11.80;3.55;;;5.20;99.90;;;;;;4161242;28;20471;-61
2021/12/12 04:50:46;;;;;;;12.13;3.95;;;5.20;99.90;;;;;;4161131;28;20029;-62
2021/12/12 04:52:56;;;;;;;10.73;3.70;;;5.20;99.90;;;;;;4106632;28;20069;-61
2021/12/12 04:55:23;;;;;;;11.75;3.53;;;5.10;99.90;;;;;;4161246;28;20036;-61
2021/12/12 04:57:28;;;;;;;8.00;3.40;;;5.20;99.90;;;;;;4161801;28;20265;-61
2021/12/12 04:59:37;;;;;;;12.50;3.60;;;5.20;99.90;;;;;;4160461;28;20034;-61
2021/12/12 05:01:45;;;;;;;13.63;4.28;;;5.20;99.90;;;;;;4160195;28;20043;-61
2021/12/12 05:03:50;;;;;;;11.07;3.47;;;5.20;99.90;;;;;;4161176;28;20050;-61
2021/12/12 05:06:01;;;;;;;11.10;3.70;;;5.20;99.90;;;;;;4160691;28;20053;-61
2021/12/12 05:08:09;;;;;;;11.50;3.47;;;5.20;99.90;;;;;;4161137;28;20033;-60
2021/12/12 05:10:21;;;;;;;8.05;3.25;;;5.20;99.90;;;;;;4160357;28;20040;-63
2021/12/12 05:12:32;;;;;;;7.65;3.65;;;5.20;99.90;;;;;;4161376;28;20029;-61
2021/12/12 05:14:40;;;;;;;12.43;3.63;;;5.10;99.90;;;;;;4160953;28;20120;-61
2021/12/12 05:16:44;;;;;;;12.70;3.28;;;5.20;99.90;;;;;;4160547;28;20025;-61
2021/12/12 05:18:51;;;;;;;11.90;3.47;;;5.20;99.90;;;;;;4161206;28;20021;-61
2021/12/12 05:20:57;;;;;;;8.93;3.63;;;5.20;99.90;;;;;;4165141;28;20380;-61
2021/12/12 05:23:03;;;;;;;9.82;3.42;;;5.20;99.90;;;;;;4166266;28;20040;-61
2021/12/12 05:25:10;;;;;;;9.55;3.10;;;5.20;99.90;;;;;;4166060;28;20036;-62
2021/12/12 05:27:17;;;;;;;12.27;3.90;;;5.20;99.90;;;;;;4148311;28;20393;-61
2021/12/12 05:29:41;;;;;;;8.52;3.22;;;5.20;99.90;;;;;;4165943;28;20033;-61
2021/12/12 05:31:48;;;;;;;11.13;3.33;;;5.20;99.90;;;;;;4150188;28;20041;-61
2021/12/12 05:33:51;;;;;;;10.48;3.70;;;5.20;99.90;;;;;;4166050;28;20034;-61
2021/12/12 05:35:53;;;;;;;7.65;3.50;;;5.20;99.90;;;;;;4165552;28;20087;-61
2021/12/12 05:37:56;;;;;;;9.98;3.97;;;5.20;99.90;;;;;;4165809;28;20030;-60
2021/12/12 05:40:01;;;;;;;11.07;4.20;;;5.30;99.90;;;;;;4165848;28;20036;-61
2021/12/12 05:42:03;;;;;;;8.38;3.42;;;5.30;99.90;;;;;;4165410;28;20029;-61
2021/12/12 05:44:05;;;;;;;10.73;3.53;;;5.30;99.90;;;;;;4165964;28;20484;-61
2021/12/12 05:46:06;;;;;;;9.93;3.75;;;5.30;99.90;;;;;;4164981;28;20041;-60
2021/12/12 05:48:08;;;;;;;8.80;4.03;;;5.30;99.90;;;;;;4165777;28;20032;-61
2021/12/12 05:50:12;;;;;;;8.83;3.63;;;5.30;99.90;;;;;;4164934;28;20029;-62
2021/12/12 05:52:17;;;;;;;10.57;3.58;;;5.30;99.90;;;;;;4165626;28;20037;-61
2021/12/12 05:54:17;;;;;;;7.30;3.50;;;5.30;99.90;;;;;;4165677;28;20465;-61
2021/12/12 05:56:23;;;;;;;15.10;4.13;;;5.30;99.90;;;;;;4164779;28;20034;-61
2021/12/12 05:58:24;;;;;;;9.60;3.60;;;5.30;99.90;;;;;;4165647;28;20068;-61
2021/12/12 06:00:39;;;;;;;9.93;3.80;;;5.30;99.90;;;;;;4164756;28;20029;-61
2021/12/12 06:02:41;;;;;;;10.25;3.75;;;5.40;99.90;;;;;;4165275;28;20045;-61
2021/12/12 06:04:42;;;;;;;7.47;3.27;;;5.40;99.90;;;;;;4165464;28;20030;-60
2021/12/12 06:06:43;;;;;;;11.43;3.67;;;5.40;99.90;;;;;;4164906;28;20044;-61
2021/12/12 06:08:46;;;;;;;7.47;3.35;;;5.50;99.90;;;;;;4165320;28;20030;-61
2021/12/12 06:10:48;;;;;;;10.30;3.67;;;5.40;99.90;;;;;;4164405;28;20111;-61
2021/12/12 06:12:49;;;;;;;11.50;3.88;;;5.40;99.90;;;;;;4165280;28;20029;-60
2021/12/12 06:14:51;;;;;;;8.67;3.57;;;5.50;99.90;;;;;;4165410;28;20392;-61
2021/12/12 06:16:52;;;;;;;7.57;3.13;;;5.50;99.90;;;;;;4164856;28;20353;-60
2021/12/12 06:18:59;;;;;;;10.82;3.72;;;5.50;99.90;;;;;;4165268;28;20061;-60
2021/12/12 06:21:00;;;;;;;10.23;3.85;;;5.50;99.90;;;;;;4164461;28;20533;-61
2021/12/12 06:23:01;;;;;;;5.78;3.28;;;5.50;99.90;;;;;;4165370;28;20498;-61
2021/12/12 06:25:04;;;;;;;9.02;3.90;;;5.50;99.90;;;;;;4165104;28;20033;-61
2021/12/12 06:27:16;;;;;;;11.85;3.80;;;5.50;99.90;;;;;;4165370;28;20034;-61
2021/12/12 06:29:17;;;;;;;5.82;2.85;;;5.50;99.90;;;;;;4165395;28;20451;-61
2021/12/12 06:31:18;;;;;;;6.55;3.03;;;5.60;99.90;;;;;;4164240;28;20067;-61
2021/12/12 06:33:19;;;;;;;8.95;3.72;;;5.60;99.90;;;;;;4165288;28;20479;-61
2021/12/12 06:35:20;;;;;;;4.82;2.88;;;5.60;99.90;;;;;;4164213;28;20029;-61
2021/12/12 06:37:22;;;;;;;6.38;3.28;;;5.60;99.90;;;;;;4165260;28;20414;-61
2021/12/12 06:39:25;;;;;;;5.88;3.10;;;5.60;99.90;;;;;;4165002;28;20037;-61
2021/12/12 06:41:27;;;;;;;6.60;3.28;;;5.60;99.90;;;;;;4164441;28;20075;-62
2021/12/12 06:43:28;;;;;;;5.32;2.80;;;5.60;99.90;;;;;;4164858;28;20025;-62
2021/12/12 06:45:29;;;;;;;5.95;2.85;;;5.60;99.90;;;;;;4164355;28;20484;-61
2021/12/12 06:47:32;;;;;;;6.03;3.22;;;5.60;99.90;;;;;;4165299;28;20033;-62
2021/12/12 06:49:33;;;;;;;5.25;3.13;;;5.60;99.90;;;;;;4165094;28;20033;-61
2021/12/12 06:51:37;;;;;;;4.53;2.75;;;5.60;99.90;;;;;;4164045;28;20116;-62
2021/12/12 06:53:41;;;;;;;3.65;2.85;;;5.70;99.90;;;;;;4164751;28;20032;-62
2021/12/12 06:55:44;;;;;;;5.55;2.92;;;5.60;99.90;;;;;;4164193;28;20030;-62
2021/12/12 06:57:45;;;;;;;6.13;2.90;;;5.60;99.90;;;;;;4164839;28;20033;-61
2021/12/12 06:59:48;;;;;;;4.97;2.92;;;5.60;99.90;;;;;;4164799;28;20064;-62
2021/12/12 07:01:51;;;;;;;6.28;3.00;;;5.60;99.90;;;;;;4163955;28;20044;-63
2021/12/12 07:03:52;;;;;;;;;;;5.70;99.90;;;;;;4165084;28;20069;-62
2021/12/12 07:05:53;;;;;;;5.13;3.05;;;5.60;99.90;;;;;;4164003;28;19912;-62
2021/12/12 07:07:54;;;;;;;4.97;3.10;;;5.70;99.90;;;;;;4164875;28;20079;-62
2021/12/12 07:09:56;;;;;;;8.00;3.50;;;5.70;99.90;;;;;;4164858;28;20064;-62
2021/12/12 07:12:00;;;;;;;3.90;2.83;;;5.60;99.90;;;;;;4164168;28;20040;-62
2021/12/12 07:14:02;;;;;;;4.78;3.22;;;5.70;99.90;;;;;;4164599;28;20036;-62
2021/12/12 07:16:05;;;;;;;5.00;2.75;;;5.70;99.90;;;;;;4164302;28;20083;-62
2021/12/12 07:18:11;;;;;;;6.97;3.30;;;5.70;99.90;;;;;;4164658;28;20052;-62
2021/12/12 07:20:12;;;;;;;4.85;3.30;;;5.70;99.90;;;;;;4164213;28;20034;-66
2021/12/12 07:22:14;;;;;;;7.43;3.35;;;5.80;99.90;;;;;;4164829;28;20037;-61
2021/12/12 07:24:17;;;;;;;5.25;3.63;;;5.80;99.90;;;;;;4168005;28;20376;-62
2021/12/12 07:26:21;;;;;;;6.75;3.45;;;5.80;99.90;;;;;;4149860;28;20030;-62
2021/12/12 07:28:22;;;;;;;8.18;3.55;;;5.80;99.90;;;;;;4168173;28;20075;-61
2021/12/12 07:30:23;;;;;;;4.05;3.15;;;5.80;99.90;;;;;;4167218;28;20053;-63
2021/12/12 07:32:26;;;;;;;5.95;3.42;;;5.80;99.90;;;;;;4167972;28;20029;-62
2021/12/12 07:34:28;;;;;;;7.25;3.53;;;5.80;99.90;;;;;;4167902;28;20041;-64
2021/12/12 07:36:33;;;;;;;8.90;3.75;;;5.80;99.90;;;;;;4167025;28;20065;-63
2021/12/12 07:38:36;;;;;;;5.45;3.60;;;5.90;99.90;;;;;;4167747;28;20049;-63
2021/12/12 07:40:38;;;;;;;5.40;3.33;;;5.90;99.90;;;;;;4166960;28;20076;-63
2021/12/12 07:42:41;;;;;;;7.00;4.03;;;5.90;99.90;;;;;;4167819;28;20033;-64
2021/12/12 07:44:43;;;;;;;5.53;3.70;;;5.90;99.90;;;;;;4167938;28;20033;-63
2021/12/12 07:46:46;;;;;;;7.07;4.15;;;5.90;99.90;;;;;;4166534;28;20040;-63
2021/12/12 07:48:49;;;;;;;7.50;4.00;;;5.90;99.90;;;;;;4167623;28;20468;-63
2021/12/12 07:50:53;;;;;;;5.93;3.70;;;5.90;99.90;;;;;;4149104;28;20093;-64
2021/12/12 07:52:54;;;;;;;6.80;3.83;;;6.00;99.90;;;;;;4167710;28;20083;-63
2021/12/12 07:54:57;;;;;;;6.45;3.53;;;6.00;99.90;;;;;;4167764;28;20075;-63
2021/12/12 07:56:58;;;;;;;;;;;6.00;99.90;;;;;;4167104;28;20380;-63
2021/12/12 07:59:04;;;;;;;6.90;3.70;;;6.00;99.90;;;;;;4167472;28;19905;-63
2021/12/12 08:01:05;;;;;;;6.43;3.30;;;6.00;99.90;;;;;;4167051;28;20037;-63
2021/12/12 08:03:06;;;;;;;6.27;3.47;;;6.00;99.90;;;;;;4167073;28;20057;-63
2021/12/12 08:05:09;;;;;;;6.57;4.07;;;6.10;99.90;;;;;;4167092;28;20287;-65
2021/12/12 08:07:11;;;;;;;;;;;6.10;99.90;;;;;;4167624;28;20067;-63
2021/12/12 08:09:12;;;;;;;5.50;3.22;;;6.10;99.90;;;;;;4167170;28;19909;-63
2021/12/12 08:11:26;;;;;;;6.30;3.80;;;6.10;99.90;;;;;;4166438;28;20040;-63
2021/12/12 08:13:27;;;;;;;5.95;3.63;;;6.10;99.90;;;;;;4167495;28;20525;-63
2021/12/12 08:15:28;;;;;;;6.28;3.72;;;6.20;99.90;;;;;;4166516;28;20164;-63
2021/12/12 08:17:29;;;;;;;6.80;3.80;;;6.20;99.90;;;;;;4167218;28;20570;-63
2021/12/12 08:19:30;;;;;;;7.07;3.45;;;6.20;99.90;;;;;;4167095;28;20037;-63
2021/12/12 08:21:33;;;;;;;6.15;4.07;;;6.30;99.90;;;;;;4166458;28;20022;-63
2021/12/12 08:23:35;;;;;;;6.13;3.78;;;6.30;99.90;;;;;;4149785;28;20385;-63
2021/12/12 08:25:37;;;;;;;6.00;3.60;;;6.30;99.90;;;;;;4166598;28;20026;-63
2021/12/12 08:27:38;;;;;;;6.93;3.70;;;6.30;99.90;;;;;;4167305;28;20044;-63
2021/12/12 08:29:40;;;;;;;6.53;4.28;;;6.30;99.90;;;;;;4167207;28;20430;-63
2021/12/12 08:31:42;;;;;;;5.43;3.42;;;6.40;99.90;;;;;;4148541;28;20109;-63
2021/12/12 08:33:43;;;;;;;6.80;4.07;;;6.40;99.90;;;;;;4166428;28;20033;-63
2021/12/12 08:35:45;;;;;;;7.38;3.88;;;6.40;99.90;;;;;;4165437;28;20038;-63
2021/12/12 08:37:47;;;;;;;9.93;4.88;;;6.50;99.90;;;;;;4166815;28;20061;-63
2021/12/12 08:39:48;;;;;;;6.77;3.20;;;6.50;99.90;;;;;;4166804;28;20044;-63
2021/12/12 08:41:50;;;;;;;7.03;3.70;;;6.50;99.90;;;;;;4166069;28;20028;-63
2021/12/12 08:43:51;;;;;;;8.27;4.22;;;6.50;99.90;;;;;;4166719;28;20510;-63
2021/12/12 08:46:05;;;;;;;6.90;3.67;;;6.50;99.90;;;;;;4166092;28;20029;-63
2021/12/12 08:48:06;;;;;;;5.53;3.70;;;6.60;99.90;;;;;;4149075;28;20104;-63
2021/12/12 08:50:11;;;;;;;4.13;3.28;;;6.60;99.90;;;;;;4166206;28;20073;-65
2021/12/12 08:52:21;;;;;;;5.57;3.30;;;6.60;99.90;;;;;;4166858;28;20113;-63
2021/12/12 08:54:26;;;;;;;4.18;3.00;;;6.60;99.90;;;;;;4167122;28;20037;-63
2021/12/12 08:56:44;;;;;;;6.72;3.97;;;6.70;99.90;;;;;;4166136;28;20041;-63
2021/12/12 08:58:46;;;;;;;5.60;3.47;;;6.70;99.90;;;;;;4166496;28;20026;-63
2021/12/12 09:00:56;;;;;;;5.88;3.55;;;6.70;99.90;;;;;;4165983;28;20040;-63
2021/12/12 09:02:58;;;;;;;6.75;4.28;;;6.70;99.90;;;;;;4166685;28;20428;-63
2021/12/12 09:05:04;;;;;;;6.40;4.35;;;6.70;99.90;;;;;;4166452;28;20060;-63
2021/12/12 09:07:13;;;;;;;6.38;4.63;;;6.70;99.90;;;;;;4165750;28;20037;-63
2021/12/12 09:09:22;;;;;;;7.53;3.58;;;6.80;99.90;;;;;;4166606;28;20030;-63
2021/12/12 09:11:44;;;;;;;5.88;3.72;;;6.80;99.90;;;;;;4165579;28;20107;-63
2021/12/12 09:13:53;;;;;;;8.18;3.80;;;6.80;99.90;;;;;;4166455;28;20039;-63
2021/12/12 09:16:11;;;;;;;4.57;3.28;;;6.80;99.90;;;;;;4165536;28;20037;-63
2021/12/12 09:18:31;;;;;;;6.43;3.28;;;6.80;99.90;;;;;;4166594;28;20468;-64
2021/12/12 09:20:46;;;;;;;7.05;3.45;;;6.80;99.90;;;;;;4147923;28;20025;-63
2021/12/12 09:23:15;;;;;;;7.45;3.35;;;6.80;99.90;;;;;;4148776;28;20091;-63
2021/12/12 09:25:35;;;;;;;6.18;3.20;;;6.90;99.90;;;;;;4152198;28;20112;-63
2021/12/12 09:27:43;;;;;;;7.22;3.92;;;6.90;99.90;;;;;;4166062;28;20037;-63
2021/12/12 09:30:07;;;;;;;6.07;3.05;;;6.90;99.90;;;;;;4166259;28;20037;-63
2021/12/12 09:32:54;;;;;;;6.18;3.10;;;6.90;99.90;;;;;;4165845;28;20034;-63
2021/12/12 09:35:10;;;;;;;5.72;2.90;;;7.00;99.90;;;;;;4139271;28;20038;-62
2021/12/12 09:37:22;;;;;;;5.90;3.05;;;7.00;99.90;;;;;;4165929;28;20029;-62
2021/12/12 09:39:27;;;;;;;4.47;2.72;;;7.00;99.90;;;;;;4166188;28;20026;-63
2021/12/12 09:41:53;;;;;;;5.05;2.92;;;7.00;99.90;;;;;;4165533;28;20037;-63
2021/12/12 09:44:14;;;;;;;7.30;2.95;;;7.10;99.90;;;;;;4166105;28;20099;-64
2021/12/12 09:47:24;;;;;;;5.82;2.95;;;7.10;99.90;;;;;;4130839;28;20018;-63
2021/12/12 09:52:15;;;;;;;2.90;2.25;;;7.20;99.90;;;;;;4165203;28;20465;-63
2021/12/12 09:54:27;;;;;;;3.97;2.75;;;7.20;99.90;;;;;;4165800;28;20037;-63
2021/12/12 09:56:56;;;;;;;6.50;2.92;;;7.20;99.90;;;;;;4165220;28;20490;-63
2021/12/12 09:59:39;;;;;;;5.00;2.85;;;7.30;99.90;;;;;;4154101;28;20479;-63
2021/12/12 10:02:07;;;;;;;6.70;3.38;;;7.30;99.90;;;;;;4165143;28;20040;-63
2021/12/12 10:04:21;;;;;;;5.15;2.90;;;7.30;99.90;;;;;;4165926;28;20052;-63
2021/12/12 10:06:51;;;;;;;4.90;2.92;;;7.40;99.90;;;;;;4164948;28;20431;-63
2021/12/12 10:09:04;;;;;;;4.30;3.03;;;7.40;99.90;;;;;;4165016;28;20021;-63
2021/12/12 10:11:10;;;;;;;7.25;2.75;;;7.40;99.90;;;;;;4164424;28;20041;-63
2021/12/12 10:13:21;;;;;;;6.25;2.92;;;7.40;99.90;;;;;;4165938;28;20037;-63
2021/12/12 10:15:26;;;;;;;4.65;2.80;;;7.50;99.90;;;;;;4164855;28;20044;-64
2021/12/12 10:17:37;;;;;;;5.07;2.65;;;7.50;99.90;;;;;;4163751;28;20167;-64
2021/12/12 10:19:43;;;;;;;6.20;3.03;;;7.50;99.90;;;;;;4157439;28;20125;-63
2021/12/12 10:22:22;;;;;;;4.03;2.33;;;7.50;99.90;;;;;;4147998;28;20030;-63
2021/12/12 10:24:58;;;;;;;8.25;3.53;;;7.60;99.90;;;;;;4148999;28;20076;-63
2021/12/12 10:27:11;;;;;;;7.20;2.97;;;7.60;99.90;;;;;;4147716;28;20042;-63
2021/12/12 10:29:26;;;;;;;4.15;2.38;;;7.60;99.90;;;;;;4148920;28;20030;-63
2021/12/12 10:31:42;;;;;;;7.18;2.72;;;7.60;99.90;;;;;;4148079;28;20042;-63
2021/12/12 10:33:51;;;;;;;4.30;2.50;;;7.60;99.90;;;;;;4148844;28;20025;-63
2021/12/12 10:36:10;;;;;;;4.57;2.80;;;7.70;99.90;;;;;;4148195;28;20044;-65
2021/12/12 10:38:17;;;;;;;4.97;2.50;;;7.70;99.90;;;;;;4148755;28;20033;-63
2021/12/12 10:40:34;;;;;;;4.05;2.70;;;7.70;99.90;;;;;;4148203;28;20034;-63
2021/12/12 10:42:45;;;;;;;5.03;2.60;;;7.70;99.90;;;;;;4148646;28;20034;-64
2021/12/12 10:45:08;;;;;;;3.65;2.20;;;7.80;99.90;;;;;;4148765;28;20100;-63
2021/12/12 10:47:12;;;;;;;4.30;2.50;;;7.80;99.90;;;;;;4147729;28;20034;-63
2021/12/12 10:49:21;;;;;;;6.57;2.63;;;7.80;99.90;;;;;;4148690;28;20026;-63
2021/12/12 10:51:23;;;;;;;7.38;2.67;;;7.80;99.90;;;;;;4147815;28;20358;-63
2021/12/12 10:53:43;;;;;;;5.82;2.53;;;7.80;99.90;;;;;;4148397;28;20030;-63
2021/12/12 10:55:56;;;;;;;5.30;2.95;;;7.90;99.90;;;;;;4148093;28;20492;-63
2021/12/12 10:58:07;;;;;;;5.72;2.75;;;7.90;99.90;;;;;;4148224;28;20026;-63
2021/12/12 11:00:21;;;;;;;4.10;2.38;;;7.90;99.90;;;;;;4149383;28;20469;-64
2021/12/12 11:02:32;;;;;;;7.13;2.80;;;7.90;99.90;;;;;;4150722;28;20054;-62
2021/12/12 11:04:48;;;;;;;5.22;2.63;;;7.80;99.90;;;;;;4150152;28;20036;-62
2021/12/12 11:07:00;;;;;;;4.53;2.72;;;7.90;99.90;;;;;;4149618;28;20040;-62
2021/12/12 11:09:12;;;;;;;4.78;2.38;;;7.90;99.90;;;;;;4149718;28;20038;-62
2021/12/12 11:11:16;;;;;;;5.25;2.60;;;7.90;99.90;;;;;;4149008;28;20046;-62
2021/12/12 11:13:38;;;;;;;4.93;2.72;;;8.00;99.90;;;;;;4149457;28;20116;-62
2021/12/12 11:16:02;;;;;;;5.67;2.40;;;7.90;99.90;;;;;;4148285;28;20030;-62
2021/12/12 11:18:27;;;;;;;7.05;3.00;;;8.00;99.90;;;;;;4148349;28;20372;-62
2021/12/12 11:20:54;;;;;;;4.75;2.47;;;8.00;99.90;;;;;;4147805;28;20061;-62
2021/12/12 11:23:05;;;;;;;4.55;2.72;;;8.00;99.90;;;;;;4148315;28;20030;-62
2021/12/12 11:25:21;;;;;;;6.22;3.00;;;8.00;99.90;;;;;;4147912;28;20038;-62
2021/12/12 11:27:33;;;;;;;5.35;2.88;;;8.10;99.90;;;;;;4148376;28;20492;-62